Time;durP1;ratioP1;P1;durP2;ratioP2;P2;SDS_P1;SDS_P2;PMS_P1;PMS_P2;Temp;Humidity;BMP_temperature;BMP_pressure;BME280_temperature;BME280_humidity;BME280_pressure;Samples;Min_cycle;Max_cycle;Signal;HPM_P1;HPM_P2
2021/01/02 00:01:02;;;;;;;27.80;12.48;;;;;;;0.74;87.67;95960.34;5009396;28;20046;-68
2021/01/02 00:03:47;;;;;;;25.05;12.43;;;;;;;0.76;87.98;95963.50;5009761;28;20948;-68
2021/01/02 00:06:27;;;;;;;28.08;13.10;;;;;;;0.67;88.15;95959.25;5007218;28;20041;-68
2021/01/02 00:09:00;;;;;;;27.73;12.13;;;;;;;0.74;88.32;95970.34;5005175;28;20037;-68
2021/01/02 00:11:47;;;;;;;26.60;12.13;;;;;;;0.84;87.89;95969.19;4991581;28;20938;-67
2021/01/02 00:14:34;;;;;;;35.50;14.40;;;;;;;0.71;88.60;95970.97;5002592;28;20037;-67
2021/01/02 00:17:21;;;;;;;27.95;12.70;;;;;;;0.88;87.23;95968.25;5014953;28;20587;-68
2021/01/02 00:20:08;;;;;;;30.90;13.35;;;;;;;0.88;88.02;95970.94;4998364;28;20409;-69
2021/01/02 00:22:41;;;;;;;28.77;13.15;;;;;;;0.69;87.98;95968.59;5007728;28;20483;-68
2021/01/02 00:25:12;;;;;;;32.00;13.75;;;;;;;0.74;88.02;95978.44;4976766;28;20100;-69
2021/01/02 00:28:02;;;;;;;29.23;13.13;;;;;;;0.60;88.09;95975.91;5003823;28;20045;-67
2021/01/02 00:30:33;;;;;;;31.80;13.60;;;;;;;0.59;89.36;95977.00;5005983;28;20041;-68
2021/01/02 00:33:12;;;;;;;27.85;12.20;;;;;;;0.69;88.60;95976.69;5001002;28;20169;-69
2021/01/02 00:35:38;;;;;;;31.83;13.45;;;;;;;0.78;88.60;95976.66;4985683;28;20033;-68
2021/01/02 00:38:08;;;;;;;32.25;13.50;;;;;;;0.75;87.95;95975.38;5000573;28;20056;-66
2021/01/02 00:40:37;;;;;;;;;;;;;;;0.94;87.84;95971.56;5012776;28;20053;-68
2021/01/02 00:43:04;;;;;;;26.27;12.53;;;;;;;0.81;87.10;95981.41;5007633;28;19913;-65
2021/01/02 00:45:34;;;;;;;25.55;11.40;;;;;;;0.87;87.54;95977.44;4993188;28;20391;-68
2021/01/02 00:48:03;;;;;;;;;;;;;;;0.75;88.27;95974.59;4999575;28;20155;-68
2021/01/02 00:50:29;;;;;;;29.52;11.75;;;;;;;0.91;87.22;95972.97;5007382;28;19959;-69
2021/01/02 00:52:58;;;;;;;30.13;12.93;;;;;;;0.71;88.29;95973.66;5008797;28;20077;-69
2021/01/02 00:55:45;;;;;;;28.75;12.27;;;;;;;0.71;88.71;95976.34;5002588;28;20078;-68
2021/01/02 00:58:19;;;;;;;29.88;12.45;;;;;;;0.91;87.91;95978.34;5013024;28;20033;-69
2021/01/02 01:00:51;;;;;;;30.35;14.52;;;;;;;0.71;87.91;95979.84;5019410;28;20567;-71
2021/01/02 01:04:02;;;;;;;30.23;13.60;;;;;;;0.89;87.91;95980.59;5012130;28;20783;-68
2021/01/02 01:06:29;;;;;;;30.10;12.90;;;;;;;1.15;88.50;95977.00;5024897;28;20331;-69
2021/01/02 01:09:03;;;;;;;34.85;15.30;;;;;;;0.92;87.45;95979.16;5019191;28;20045;-68
2021/01/02 01:11:33;;;;;;;35.70;14.30;;;;;;;0.67;88.23;95970.81;5009253;28;20045;-69
2021/01/02 01:13:59;;;;;;;35.05;14.00;;;;;;;0.61;88.84;95974.00;5008897;28;20046;-66
2021/01/02 01:16:26;;;;;;;31.88;14.35;;;;;;;0.58;88.96;95970.03;5000093;28;20513;-68
2021/01/02 01:19:04;;;;;;;33.28;13.48;;;;;;;0.74;88.43;95973.03;5000356;28;20049;-69
2021/01/02 01:21:35;;;;;;;30.67;12.47;;;;;;;0.82;88.31;95969.50;4997967;28;20049;-67
2021/01/02 01:24:13;;;;;;;32.92;12.95;;;;;;;0.81;88.19;95967.13;5024992;28;20136;-70
2021/01/02 01:27:04;;;;;;;32.33;15.55;;;;;;;0.69;87.61;95968.59;5016808;28;20049;-68
2021/01/02 01:29:57;;;;;;;31.13;13.45;;;;;;;0.62;89.04;95970.19;5019596;28;20075;-69
2021/01/02 01:32:25;;;;;;;26.73;12.85;;;;;;;0.75;88.93;95966.50;4996848;28;20033;-69
2021/01/02 01:34:57;;;;;;;29.70;12.55;;;;;;;0.76;88.04;95970.81;5014357;28;20046;-69
2021/01/02 01:37:26;;;;;;;37.25;15.38;;;;;;;0.81;88.32;95967.94;5010113;28;20908;-69
2021/01/02 01:39:52;;;;;;;33.72;14.68;;;;;;;0.76;88.08;95976.97;5012129;28;20048;-68
2021/01/02 01:42:54;;;;;;;37.05;15.77;;;;;;;0.56;89.01;95983.06;5005413;28;20426;-69
2021/01/02 01:45:37;;;;;;;33.38;13.73;;;;;;;0.52;88.79;95979.38;4979033;28;20037;-68
2021/01/02 01:48:08;;;;;;;39.42;15.43;;;;;;;0.52;88.90;95982.09;5000411;28;20045;-65
2021/01/02 01:50:52;;;;;;;39.17;14.38;;;;;;;0.53;89.47;95979.06;5016840;28;20041;-66
2021/01/02 01:53:43;;;;;;;39.22;15.65;;;;;;;0.49;89.39;95966.56;5016017;28;20060;-66
2021/01/02 01:56:15;;;;;;;38.95;15.52;;;;;;;0.52;89.37;95965.91;4979122;28;20057;-66
2021/01/02 01:58:52;;;;;;;36.35;14.27;;;;;;;0.52;88.89;95972.13;4993524;28;20050;-66
2021/01/02 02:01:25;;;;;;;35.17;15.80;;;;;;;0.55;89.02;95979.53;5002485;28;20113;-65
2021/01/02 02:04:29;;;;;;;37.00;15.65;;;;;;;0.53;89.08;95984.47;4998441;28;20067;-68
2021/01/02 02:07:00;;;;;;;37.10;14.38;;;;;;;0.63;88.55;95988.75;5014628;28;20044;-65
2021/01/02 02:09:42;;;;;;;39.72;15.27;;;;;;;0.52;88.97;95979.38;5014407;28;20129;-66
2021/01/02 02:12:20;;;;;;;43.65;15.02;;;;;;;0.55;88.99;95981.47;5007644;28;20064;-66
2021/01/02 02:14:57;;;;;;;40.45;15.50;;;;;;;0.62;89.13;95981.75;5009811;28;20049;-66
2021/01/02 02:17:34;;;;;;;40.42;16.27;;;;;;;0.56;88.77;95980.34;5004507;28;20111;-66
2021/01/02 02:20:07;;;;;;;34.92;14.73;;;;;;;0.56;88.70;95981.13;5008888;28;20405;-67
2021/01/02 02:22:36;;;;;;;42.42;14.75;;;;;;;0.60;88.96;95975.91;4994532;28;20530;-66
2021/01/02 02:25:05;;;;;;;39.70;14.73;;;;;;;0.78;88.35;95973.19;4998034;28;20514;-65
2021/01/02 02:27:35;;;;;;;34.60;14.57;;;;;;;0.83;87.88;95970.28;4998684;28;20072;-66
2021/01/02 02:30:12;;;;;;;37.45;15.00;;;;;;;0.82;87.55;95982.19;5000032;28;20117;-65
2021/01/02 02:32:48;;;;;;;38.05;14.65;;;;;;;0.62;88.61;95983.69;5010614;28;20038;-66
2021/01/02 02:35:21;;;;;;;38.58;16.40;;;;;;;0.57;89.39;95982.72;5004734;28;20037;-65
2021/01/02 02:37:52;;;;;;;42.08;16.15;;;;;;;0.55;89.02;95976.84;5018069;28;20403;-65
2021/01/02 02:40:19;;;;;;;38.15;15.65;;;;;;;0.62;88.56;95975.59;4996482;28;20046;-65
2021/01/02 02:42:59;;;;;;;31.27;14.57;;;;;;;0.64;87.94;95974.16;4998967;28;20080;-65
2021/01/02 02:45:28;;;;;;;41.25;16.75;;;;;;;0.63;88.33;95967.19;4993660;28;20053;-67
2021/01/02 02:47:57;;;;;;;36.08;15.73;;;;;;;0.60;88.24;95975.13;5010407;28;20033;-66
2021/01/02 02:50:27;;;;;;;37.63;16.73;;;;;;;0.64;88.33;95976.84;4987701;28;20652;-68
2021/01/02 02:52:56;;;;;;;;;;;;;;;0.66;88.73;95969.22;5025055;28;20184;-66
2021/01/02 02:55:21;;;;;;;36.45;13.43;;;;;;;0.81;88.24;95973.34;5013763;28;20062;-66
2021/01/02 02:57:48;;;;;;;36.10;15.25;;;;;;;0.74;87.78;95970.34;5024018;28;20496;-66
2021/01/02 03:00:16;;;;;;;38.47;15.25;;;;;;;0.81;88.20;95970.63;4992218;28;20049;-66
2021/01/02 03:02:45;;;;;;;34.67;14.32;;;;;;;0.76;87.86;95960.03;5013121;28;20052;-66
2021/01/02 03:05:13;;;;;;;36.60;14.82;;;;;;;0.72;88.33;95964.44;5005096;28;20504;-66
2021/01/02 03:07:46;;;;;;;37.03;15.23;;;;;;;0.72;88.02;95962.56;5017881;28;20042;-66
2021/01/02 03:10:14;;;;;;;38.58;14.55;;;;;;;0.81;87.95;95962.53;4995104;28;20595;-66
2021/01/02 03:12:44;;;;;;;36.92;15.85;;;;;;;0.74;87.80;95963.03;4994189;28;20049;-66
2021/01/02 03:15:15;;;;;;;36.65;15.38;;;;;;;0.73;88.21;95964.13;5007786;28;20394;-65
2021/01/02 03:17:42;;;;;;;37.45;16.60;;;;;;;0.57;88.80;95963.84;5014502;28;20588;-65
2021/01/02 03:20:09;;;;;;;35.75;15.57;;;;;;;0.66;88.32;95957.66;5013626;28;20111;-67
2021/01/02 03:22:39;;;;;;;33.17;14.98;;;;;;;0.63;88.45;95960.97;5032695;28;20041;-66
2021/01/02 03:25:09;;;;;;;34.95;15.40;;;;;;;0.60;88.22;95957.03;5024976;28;20042;-66
2021/01/02 03:27:34;;;;;;;38.13;15.55;;;;;;;0.64;88.47;95955.28;5015958;28;20120;-65
2021/01/02 03:30:00;;;;;;;39.20;15.60;;;;;;;0.73;87.84;95952.56;5007593;28;20049;-66
2021/01/02 03:32:25;;;;;;;38.75;15.45;;;;;;;0.67;88.59;95960.03;4989044;28;20281;-65
2021/01/02 03:34:51;;;;;;;34.10;14.73;;;;;;;0.69;88.37;95960.50;4996913;28;20441;-66
2021/01/02 03:37:16;;;;;;;35.20;14.80;;;;;;;0.61;88.63;95964.00;4991905;28;20072;-66
2021/01/02 03:39:42;;;;;;;39.13;16.80;;;;;;;0.55;88.34;95966.06;4995885;28;20443;-66
2021/01/02 03:42:09;;;;;;;41.38;15.98;;;;;;;0.55;88.35;95971.47;5002676;28;20072;-67
2021/01/02 03:44:35;;;;;;;38.60;15.98;;;;;;;0.53;88.75;95970.22;5016799;28;20115;-66
2021/01/02 03:47:09;;;;;;;40.25;17.02;;;;;;;0.52;88.51;95972.13;5014165;28;20412;-65
2021/01/02 03:49:36;;;;;;;36.85;14.88;;;;;;;0.54;88.88;95953.72;5012564;28;20073;-66
2021/01/02 03:52:03;;;;;;;38.28;15.52;;;;;;;0.54;88.72;95969.06;5014693;28;20697;-67
2021/01/02 03:54:29;;;;;;;36.33;15.48;;;;;;;0.53;89.12;95968.28;5013381;28;20045;-67
2021/01/02 03:56:56;;;;;;;42.97;16.65;;;;;;;0.48;88.71;95960.38;5003043;28;20103;-66
2021/01/02 03:59:21;;;;;;;38.90;15.93;;;;;;;0.51;89.02;95964.34;5013702;28;20041;-66
2021/01/02 04:01:54;;;;;;;36.38;14.77;;;;;;;0.55;89.19;95973.38;5019197;28;20052;-66
2021/01/02 04:04:21;;;;;;;40.25;15.63;;;;;;;0.59;88.68;95966.22;4980513;28;20056;-66
2021/01/02 04:06:46;;;;;;;39.88;16.30;;;;;;;0.53;88.72;95962.91;5014265;28;20048;-66
2021/01/02 04:09:12;;;;;;;36.40;15.80;;;;;;;0.58;88.38;95972.75;5009728;28;20045;-66
2021/01/02 04:11:40;;;;;;;34.42;15.05;;;;;;;0.63;87.02;95966.38;5017968;28;20490;-66
2021/01/02 04:14:06;;;;;;;37.30;16.55;;;;;;;0.62;87.52;95962.91;5013007;28;20037;-65
2021/01/02 04:16:32;;;;;;;37.00;15.98;;;;;;;0.62;87.63;95965.59;5019462;28;20033;-67
2021/01/02 04:18:57;;;;;;;29.50;13.27;;;;;;;0.89;86.64;95971.72;5004087;28;20102;-66
2021/01/02 04:21:22;;;;;;;35.78;14.85;;;;;;;0.68;86.76;95966.22;5004011;28;20262;-65
2021/01/02 04:23:48;;;;;;;34.10;14.10;;;;;;;0.68;86.23;95964.28;5003030;28;20072;-66
2021/01/02 04:26:21;;;;;;;35.92;14.60;;;;;;;0.73;86.39;95961.44;5014277;28;20038;-66
2021/01/02 04:28:47;;;;;;;38.88;14.60;;;;;;;0.87;86.17;95963.94;5020347;28;20068;-67
2021/01/02 04:31:12;;;;;;;33.15;14.73;;;;;;;0.70;86.66;95959.41;5013388;28;20548;-65
2021/01/02 04:33:38;;;;;;;38.33;15.35;;;;;;;0.57;86.74;95963.84;5018532;28;20045;-66
2021/01/02 04:36:04;;;;;;;41.53;17.67;;;;;;;0.54;87.08;95967.19;5019390;28;20095;-66
2021/01/02 04:38:29;;;;;;;35.92;14.88;;;;;;;0.59;86.89;95970.81;5024979;28;20102;-66
2021/01/02 04:40:59;;;;;;;35.28;16.00;;;;;;;0.59;86.45;95960.06;5007433;28;20508;-65
2021/01/02 04:43:24;;;;;;;;;;;;;;;0.67;86.02;95956.56;5017643;28;20536;-67
2021/01/02 04:45:50;;;;;;;36.65;14.65;;;;;;;0.80;86.07;95958.25;5021139;28;19916;-67
2021/01/02 04:48:15;;;;;;;34.50;16.08;;;;;;;0.81;85.19;95954.47;4997826;28;20410;-66
2021/01/02 04:50:41;;;;;;;36.00;16.00;;;;;;;0.75;85.70;95956.50;5020363;28;20049;-65
2021/01/02 04:53:08;;;;;;;37.83;15.70;;;;;;;0.61;86.36;95958.59;5011309;28;20049;-66
2021/01/02 04:55:44;;;;;;;36.05;14.68;;;;;;;0.66;86.15;95963.03;4977868;28;20038;-65
2021/01/02 04:58:13;;;;;;;31.88;13.90;;;;;;;0.81;84.59;95969.81;4991559;28;20130;-65
2021/01/02 05:00:40;;;;;;;36.97;15.30;;;;;;;0.91;84.48;95947.91;5026134;28;20439;-66
2021/01/02 05:03:05;;;;;;;33.17;14.32;;;;;;;0.96;84.22;95939.66;5022690;28;20072;-64
2021/01/02 05:05:31;;;;;;;33.10;15.60;;;;;;;0.79;84.39;95947.78;5010975;28;20038;-65
2021/01/02 05:07:56;;;;;;;32.70;14.98;;;;;;;0.64;85.13;95943.72;5020232;28;20084;-65
2021/01/02 05:10:21;;;;;;;30.27;14.05;;;;;;;0.68;86.01;95952.72;5007115;28;20068;-66
2021/01/02 05:12:49;;;;;;;33.50;13.43;;;;;;;0.73;84.36;95957.97;5014160;28;20518;-66
2021/01/02 05:15:15;;;;;;;36.85;15.18;;;;;;;0.78;85.16;95960.50;5015090;28;20037;-65
2021/01/02 05:17:41;;;;;;;32.28;14.38;;;;;;;0.97;84.22;95949.31;5000578;28;20080;-66
2021/01/02 05:20:07;;;;;;;32.08;15.10;;;;;;;1.07;84.20;95945.47;5010097;28;20375;-66
2021/01/02 05:22:33;;;;;;;30.90;13.90;;;;;;;0.81;84.38;95940.16;5017898;28;20128;-66
2021/01/02 05:25:17;;;;;;;35.30;14.85;;;;;;;0.79;84.45;95945.88;5017915;28;20041;-66
2021/01/02 05:27:45;;;;;;;30.17;13.20;;;;;;;0.63;85.31;95950.19;5034037;28;20041;-66
2021/01/02 05:30:21;;;;;;;29.92;14.93;;;;;;;0.61;85.01;95961.31;5032234;28;20041;-64
2021/01/02 05:32:54;;;;;;;32.72;14.85;;;;;;;0.62;84.98;95970.19;5017685;28;20045;-66
2021/01/02 05:35:21;;;;;;;34.53;13.73;;;;;;;0.60;85.20;95969.72;5007582;28;20053;-66
2021/01/02 05:37:48;;;;;;;32.90;14.73;;;;;;;0.53;85.21;95970.22;5016935;28;20045;-67
2021/01/02 05:40:34;;;;;;;32.70;13.93;;;;;;;0.61;85.15;95968.59;5014439;28;20037;-67
2021/01/02 05:43:00;;;;;;;32.75;15.02;;;;;;;0.62;85.07;95970.19;4999790;28;20119;-66
2021/01/02 05:45:28;;;;;;;31.75;14.40;;;;;;;0.66;84.90;95971.13;4990841;28;20077;-67
2021/01/02 05:47:56;;;;;;;33.97;14.27;;;;;;;0.68;85.41;95968.91;4999559;28;20453;-67
2021/01/02 05:50:22;;;;;;;37.65;16.25;;;;;;;0.68;84.63;95966.22;4993780;28;20034;-65
2021/01/02 05:52:49;;;;;;;34.55;14.68;;;;;;;0.64;85.19;95974.16;4997386;28;20050;-64
2021/01/02 05:55:28;;;;;;;33.28;14.93;;;;;;;0.76;85.44;95978.88;4990056;28;20042;-66
2021/01/02 05:57:54;;;;;;;33.70;13.90;;;;;;;0.77;85.36;95980.47;4998991;28;20052;-65
2021/01/02 06:00:20;;;;;;;35.33;14.50;;;;;;;0.69;85.40;95983.97;4993920;28;20041;-65
2021/01/02 06:02:45;;;;;;;36.22;15.18;;;;;;;0.67;85.02;95981.59;5018844;28;20048;-66
2021/01/02 06:05:11;;;;;;;35.60;15.10;;;;;;;0.61;84.77;95974.00;5014834;28;20033;-65
2021/01/02 06:07:47;;;;;;;33.92;14.65;;;;;;;0.63;85.45;95977.97;5019529;28;20406;-65
2021/01/02 06:10:13;;;;;;;35.50;15.73;;;;;;;0.59;85.53;95979.69;5014167;28;20056;-68
2021/01/02 06:12:41;;;;;;;36.58;15.63;;;;;;;0.50;85.73;95989.69;5016508;28;20053;-65
2021/01/02 06:15:14;;;;;;;34.60;14.30;;;;;;;0.62;85.92;95981.75;4996191;28;20498;-64
2021/01/02 06:17:42;;;;;;;38.13;15.88;;;;;;;0.55;85.69;95987.63;5023638;28;20048;-65
2021/01/02 06:20:13;;;;;;;36.35;16.48;;;;;;;0.64;84.86;95984.94;5015915;28;20394;-64
2021/01/02 06:22:42;;;;;;;37.03;13.82;;;;;;;0.83;84.70;95997.25;5023691;28;20099;-65
2021/01/02 06:25:13;;;;;;;34.92;14.93;;;;;;;0.66;84.89;95984.59;5005433;28;20037;-65
2021/01/02 06:27:40;;;;;;;35.47;15.02;;;;;;;0.55;85.39;95992.22;5010081;28;20050;-65
2021/01/02 06:30:06;;;;;;;38.67;15.15;;;;;;;0.59;85.59;95992.38;5013724;28;20061;-65
2021/01/02 06:32:32;;;;;;;43.97;15.80;;;;;;;0.64;85.53;95998.41;5007653;28;20144;-65
2021/01/02 06:35:09;;;;;;;38.95;15.68;;;;;;;0.56;85.68;95996.53;5007582;28;20124;-65
2021/01/02 06:37:47;;;;;;;39.65;15.68;;;;;;;0.63;85.87;95985.25;5004977;28;20107;-65
2021/01/02 06:40:23;;;;;;;34.53;15.50;;;;;;;0.54;85.84;95979.84;5007840;28;20042;-65
2021/01/02 06:42:56;;;;;;;42.88;16.08;;;;;;;0.43;86.55;95984.78;5002789;28;20037;-65
2021/01/02 06:45:37;;;;;;;38.45;15.48;;;;;;;0.51;86.38;95983.22;5002416;28;20049;-65
2021/01/02 06:48:26;;;;;;;39.35;17.63;;;;;;;0.36;86.33;95981.78;5001317;28;20053;-67
2021/01/02 06:50:57;;;;;;;40.20;16.77;;;;;;;0.41;86.32;95978.94;4999066;28;20049;-66
2021/01/02 06:53:32;;;;;;;34.30;16.05;;;;;;;0.44;86.06;95980.22;5003285;28;20611;-66
2021/01/02 06:56:00;;;;;;;38.13;16.15;;;;;;;0.54;86.11;95985.25;4993961;28;20048;-66
2021/01/02 06:58:47;;;;;;;38.60;16.33;;;;;;;0.45;85.86;95977.19;5006186;28;20124;-66
2021/01/02 07:01:15;;;;;;;42.20;17.70;;;;;;;0.46;85.84;95983.38;5008020;28;20056;-66
2021/01/02 07:03:41;;;;;;;39.78;17.77;;;;;;;0.47;85.73;95983.06;5011938;28;20060;-66
2021/01/02 07:06:30;;;;;;;45.22;19.58;;;;;;;0.46;85.99;95972.59;5004690;28;20069;-65
2021/01/02 07:09:09;;;;;;;47.07;20.00;;;;;;;0.45;85.89;95966.41;5008003;28;20585;-65
2021/01/02 07:11:39;;;;;;;42.35;19.60;;;;;;;0.40;86.46;95973.84;4992221;28;20096;-66
2021/01/02 07:14:08;;;;;;;50.50;20.13;;;;;;;0.46;85.72;95972.59;5003173;28;20038;-68
2021/01/02 07:16:56;;;;;;;42.88;17.25;;;;;;;0.55;85.66;95976.06;5008439;28;20144;-66
2021/01/02 07:19:30;;;;;;;38.25;17.10;;;;;;;0.47;86.00;95972.28;4983310;28;20049;-67
2021/01/02 07:21:56;;;;;;;57.50;24.60;;;;;;;0.48;85.21;95973.06;5016106;28;20054;-63
2021/01/02 07:24:26;;;;;;;38.78;16.88;;;;;;;0.65;85.55;95977.63;4999112;28;20462;-65
2021/01/02 07:27:00;;;;;;;37.95;17.75;;;;;;;0.59;85.09;95974.31;5006898;28;20103;-68
2021/01/02 07:29:27;;;;;;;37.72;16.63;;;;;;;0.74;84.42;95975.72;4987729;28;20533;-66
2021/01/02 07:32:02;;;;;;;36.53;16.88;;;;;;;0.63;84.76;95974.47;5018745;28;20049;-67
2021/01/02 07:34:27;;;;;;;36.35;16.33;;;;;;;0.69;84.40;95973.19;4991551;28;20045;-66
2021/01/02 07:36:53;;;;;;;36.92;16.27;;;;;;;0.69;84.17;95971.28;5021692;28;20041;-65
2021/01/02 07:39:19;;;;;;;45.13;22.35;;;;;;;0.51;84.92;95980.50;5017108;28;20037;-65
2021/01/02 07:41:44;;;;;;;36.78;17.35;;;;;;;0.47;85.40;95985.75;5009208;28;20541;-66
2021/01/02 07:44:11;;;;;;;38.97;17.35;;;;;;;0.53;85.82;95984.47;4988524;28;20049;-66
2021/01/02 07:46:45;;;;;;;36.67;16.65;;;;;;;0.50;84.86;95989.69;5016460;28;20107;-66
2021/01/02 07:49:11;;;;;;;36.25;17.60;;;;;;;0.49;84.96;95994.31;4998864;28;20034;-65
2021/01/02 07:51:38;;;;;;;36.55;16.73;;;;;;;0.54;85.26;95985.25;4991733;28;20686;-66
2021/01/02 07:54:04;;;;;;;39.45;17.15;;;;;;;0.47;85.55;95984.94;5019518;28;20072;-66
2021/01/02 07:56:33;;;;;;;34.15;15.45;;;;;;;0.47;84.97;95991.13;5018515;28;20042;-66
2021/01/02 07:59:27;;;;;;;35.97;16.20;;;;;;;0.44;85.53;95996.38;5008488;28;20070;-66
2021/01/02 08:02:05;;;;;;;39.10;15.77;;;;;;;0.69;84.72;95992.84;5016862;28;20076;-65
2021/01/02 08:04:31;;;;;;;32.47;16.15;;;;;;;0.49;84.46;95994.31;5001612;28;20491;-65
2021/01/02 08:06:58;;;;;;;38.30;14.50;;;;;;;0.76;84.29;95998.53;4984720;28;20048;-66
2021/01/02 08:09:25;;;;;;;39.53;16.98;;;;;;;0.69;84.75;95986.69;5012483;28;20389;-66
2021/01/02 08:11:53;;;;;;;35.83;16.75;;;;;;;0.64;85.07;95990.31;5017643;28;20041;-66
2021/01/02 08:14:19;;;;;;;37.42;18.23;;;;;;;0.62;84.27;95997.16;5014307;28;20042;-66
2021/01/02 08:17:00;;;;;;;36.70;16.40;;;;;;;0.60;85.19;95991.28;5015009;28;20697;-65
2021/01/02 08:19:30;;;;;;;45.75;20.77;;;;;;;0.44;84.87;95993.69;5011414;28;20219;-66
2021/01/02 08:21:55;;;;;;;37.83;16.33;;;;;;;0.54;85.73;95999.53;5017110;28;20124;-65
2021/01/02 08:24:21;;;;;;;34.67;16.13;;;;;;;0.71;84.15;95993.31;5005870;28;20184;-65
2021/01/02 08:26:48;;;;;;;33.90;15.57;;;;;;;0.78;84.34;95992.06;5011966;28;20057;-65
2021/01/02 08:29:14;;;;;;;33.70;15.50;;;;;;;0.80;84.79;95992.53;5012454;28;20041;-66
2021/01/02 08:32:04;;;;;;;37.78;17.35;;;;;;;0.72;83.97;95997.59;4993761;28;20084;-67
2021/01/02 08:34:32;;;;;;;37.53;18.80;;;;;;;0.58;85.11;96005.06;4998537;28;20056;-66
2021/01/02 08:37:08;;;;;;;37.95;17.65;;;;;;;0.55;85.02;95998.41;5037910;28;20132;-67
2021/01/02 08:39:37;;;;;;;33.60;14.93;;;;;;;0.54;84.64;96004.94;5025373;28;20187;-64
2021/01/02 08:42:04;;;;;;;38.40;18.15;;;;;;;0.69;84.45;96006.31;4979211;28;20194;-67
2021/01/02 08:44:35;;;;;;;39.72;17.23;;;;;;;0.60;84.61;96013.63;5020465;28;20045;-65
2021/01/02 08:47:05;;;;;;;38.08;17.35;;;;;;;0.66;84.97;96016.94;5020655;28;20037;-65
2021/01/02 08:49:32;;;;;;;35.90;17.25;;;;;;;0.68;85.49;96010.13;5019152;28;20049;-65
2021/01/02 08:52:12;;;;;;;37.90;16.17;;;;;;;0.70;85.24;96009.81;5019821;28;20044;-66
2021/01/02 08:54:38;;;;;;;33.58;16.42;;;;;;;0.73;84.47;96006.47;5012916;28;20050;-66
2021/01/02 08:57:22;;;;;;;33.80;16.67;;;;;;;0.59;84.65;96006.66;5007504;28;20044;-67
2021/01/02 08:59:48;;;;;;;40.40;17.20;;;;;;;0.61;84.73;96003.63;5016503;28;20053;-66
2021/01/02 09:02:17;;;;;;;39.65;15.77;;;;;;;0.86;84.32;96010.09;5011230;28;20038;-67
2021/01/02 09:04:59;;;;;;;31.95;14.50;;;;;;;0.93;84.01;96000.41;5012127;28;20045;-66
2021/01/02 09:07:24;;;;;;;32.22;16.00;;;;;;;0.81;84.80;96005.69;4995850;28;20704;-66
2021/01/02 09:09:50;;;;;;;36.22;16.48;;;;;;;0.67;84.01;96010.47;5009391;28;20506;-67
2021/01/02 09:12:18;;;;;;;34.03;16.63;;;;;;;0.79;83.61;95999.00;5008256;28;20037;-66
2021/01/02 09:14:50;;;;;;;35.53;18.02;;;;;;;0.69;84.09;95998.25;5009063;28;20049;-66
2021/01/02 09:17:15;;;;;;;35.55;16.00;;;;;;;0.71;83.63;95987.91;5010667;28;20038;-66
2021/01/02 09:19:41;;;;;;;33.22;16.33;;;;;;;0.74;83.95;96000.78;5015404;28;20041;-66
2021/01/02 09:22:17;;;;;;;34.28;17.30;;;;;;;0.73;82.95;95988.38;4989996;28;20049;-65
2021/01/02 09:24:43;;;;;;;33.00;15.15;;;;;;;0.81;83.64;95992.19;5016625;28;20042;-66
2021/01/02 09:27:08;;;;;;;34.30;15.70;;;;;;;0.90;82.84;95984.88;4996388;28;20048;-66
2021/01/02 09:29:39;;;;;;;31.77;14.80;;;;;;;0.96;82.32;95980.09;5004945;28;20056;-66
2021/01/02 09:32:10;;;;;;;33.92;14.90;;;;;;;0.83;83.08;95987.28;5011056;28;20041;-67
2021/01/02 09:34:35;;;;;;;30.23;13.75;;;;;;;1.02;82.43;95986.09;5009919;28;20179;-66
2021/01/02 09:37:01;;;;;;;32.60;14.73;;;;;;;0.95;82.18;95967.72;5007669;28;20046;-65
2021/01/02 09:39:28;;;;;;;32.63;14.80;;;;;;;0.90;82.40;95982.19;5003652;28;20579;-66
2021/01/02 09:41:53;;;;;;;28.65;15.65;;;;;;;0.78;82.85;95984.75;5013168;28;20049;-66
2021/01/02 09:44:19;;;;;;;30.95;14.35;;;;;;;0.84;82.23;95991.53;4994020;28;20096;-66
2021/01/02 09:46:49;;;;;;;35.90;15.73;;;;;;;0.84;82.01;95996.16;5017571;28;20546;-68
2021/01/02 09:49:14;;;;;;;;;;;;;;;0.83;83.38;95995.38;5006182;28;20037;-67
2021/01/02 09:51:39;;;;;;;31.98;16.25;;;;;;;0.73;82.40;95993.78;5016027;28;20447;-67
2021/01/02 09:54:05;;;;;;;32.05;14.23;;;;;;;0.78;83.14;95990.13;5005767;28;20128;-68
2021/01/02 09:56:31;;;;;;;30.92;15.02;;;;;;;0.73;82.73;95993.00;4995415;28;20049;-67
2021/01/02 09:58:56;;;;;;;33.05;13.98;;;;;;;0.88;82.39;95983.59;5010702;28;20162;-67
2021/01/02 10:01:21;;;;;;;33.90;15.18;;;;;;;0.84;81.62;95988.06;4999066;28;20546;-65
2021/01/02 10:03:47;;;;;;;32.08;15.27;;;;;;;1.04;81.53;95987.34;5003046;28;20053;-66
2021/01/02 10:06:12;;;;;;;30.35;14.93;;;;;;;0.87;81.66;95979.34;5006680;28;20679;-64
2021/01/02 10:08:38;;;;;;;31.15;13.80;;;;;;;0.93;80.94;95980.75;5015010;28;20457;-65
2021/01/02 10:11:04;;;;;;;31.05;16.98;;;;;;;0.86;80.66;95983.91;5006873;28;20065;-67
2021/01/02 10:13:30;;;;;;;30.90;13.45;;;;;;;1.02;81.29;95975.31;5001958;28;20136;-65
2021/01/02 10:15:55;;;;;;;29.67;14.25;;;;;;;1.02;80.40;95970.72;4995604;28;20558;-66
2021/01/02 10:18:21;;;;;;;26.90;14.00;;;;;;;1.07;79.59;95965.16;4993415;28;20684;-66
2021/01/02 10:20:46;;;;;;;25.83;12.52;;;;;;;1.03;79.29;95949.94;4996701;28;20069;-64
2021/01/02 10:23:12;;;;;;;26.70;12.88;;;;;;;1.28;79.38;95970.63;5002544;28;20052;-66
2021/01/02 10:25:37;;;;;;;27.05;12.52;;;;;;;1.10;80.11;95969.13;5011519;28;20052;-66
2021/01/02 10:28:03;;;;;;;26.38;13.30;;;;;;;1.08;79.39;95972.13;4985741;28;20037;-66
2021/01/02 10:30:28;;;;;;;27.75;12.52;;;;;;;1.00;79.79;95982.94;5012081;28;20084;-66
2021/01/02 10:32:54;;;;;;;28.30;13.43;;;;;;;1.08;80.62;95993.72;5003960;28;20095;-66
2021/01/02 10:35:20;;;;;;;28.05;12.32;;;;;;;1.02;79.75;95984.19;4988768;28;20046;-65
2021/01/02 10:37:47;;;;;;;28.25;13.80;;;;;;;1.28;79.68;95991.44;4994943;28;20049;-66
2021/01/02 10:40:14;;;;;;;30.30;15.05;;;;;;;0.95;79.62;95981.19;5018754;28;20072;-67
2021/01/02 10:42:40;;;;;;;31.70;15.20;;;;;;;0.95;81.11;95981.19;5007381;28;20052;-65
2021/01/02 10:45:10;;;;;;;30.13;13.18;;;;;;;1.10;80.51;95974.50;5015628;28;20064;-65
2021/01/02 10:47:35;;;;;;;;;;;;;;;0.92;80.63;95966.47;5003826;28;20058;-66
2021/01/02 10:50:01;;;;;;;27.52;14.25;;;;;;;1.10;79.76;95956.41;5002147;28;20006;-66
2021/01/02 10:52:27;;;;;;;25.88;13.07;;;;;;;1.09;80.25;95962.13;4982792;28;20072;-66
2021/01/02 10:54:54;;;;;;;25.67;12.75;;;;;;;0.96;80.55;95958.53;5001024;28;20046;-66
2021/01/02 10:57:25;;;;;;;30.42;15.90;;;;;;;0.95;80.06;95954.25;5006293;28;20041;-64
2021/01/02 10:59:51;;;;;;;30.02;13.90;;;;;;;0.97;80.03;95953.91;5017819;28;20072;-64
2021/01/02 11:02:17;;;;;;;38.97;18.58;;;;;;;0.95;81.08;95948.84;5005846;28;20056;-64
2021/01/02 11:04:42;;;;;;;30.50;15.20;;;;;;;1.06;80.31;95944.69;5013725;28;20716;-64
2021/01/02 11:07:09;;;;;;;28.13;13.10;;;;;;;1.19;78.97;95940.19;4992925;28;20040;-65
2021/01/02 11:09:35;;;;;;;27.77;12.57;;;;;;;1.11;80.53;95936.41;4979233;28;20061;-64
2021/01/02 11:12:01;;;;;;;26.13;12.10;;;;;;;1.41;79.00;95933.75;5012450;28;20037;-66
2021/01/02 11:14:28;;;;;;;23.85;11.73;;;;;;;1.28;77.79;95932.06;4986485;28;20081;-64
2021/01/02 11:16:55;;;;;;;26.02;12.32;;;;;;;1.19;79.10;95928.59;4980978;28;20066;-66
2021/01/02 11:19:22;;;;;;;28.73;14.52;;;;;;;1.12;79.35;95927.22;4994007;28;20103;-65
2021/01/02 11:21:51;;;;;;;27.45;13.52;;;;;;;1.02;79.72;95919.47;5010212;28;20112;-65
2021/01/02 11:24:23;;;;;;;24.00;11.55;;;;;;;1.21;79.23;95929.88;5013034;28;20041;-64
2021/01/02 11:26:51;;;;;;;26.80;13.70;;;;;;;1.03;79.24;95918.38;5019462;28;20049;-65
2021/01/02 11:29:19;;;;;;;26.60;11.82;;;;;;;0.74;80.42;95930.69;4986603;28;20041;-66
2021/01/02 11:31:45;;;;;;;28.88;13.20;;;;;;;0.71;80.27;95915.16;5012628;28;20084;-63
2021/01/02 11:34:11;;;;;;;27.65;13.65;;;;;;;0.68;80.62;95907.69;5005902;28;20053;-65
2021/01/02 11:36:37;;;;;;;29.27;12.85;;;;;;;0.81;80.61;95902.44;5015239;28;20056;-66
2021/01/02 11:39:05;;;;;;;28.27;13.32;;;;;;;0.67;80.45;95898.06;5005624;28;20050;-66
2021/01/02 11:41:39;;;;;;;23.13;12.73;;;;;;;0.76;80.47;95893.41;5017817;28;20460;-65